sensor_id;sensor_type;location;lat;lon;timestamp;temperature;humidity
15636;DHT22;7917;50.818;6.972;2024-02-21T00:00:37;8.90;99.90
15636;DHT22;7917;50.818;6.972;2024-02-21T00:03:09;8.90;99.90
15636;DHT22;7917;50.818;6.972;2024-02-21T00:05:36;8.90;99.90
15636;DHT22;7917;50.818;6.972;2024-02-21T00:08:02;8.90;99.90
15636;DHT22;7917;50.818;6.972;2024-02-21T00:10:29;8.90;99.90
15636;DHT22;7917;50.818;6.972;2024-02-21T00:12:57;8.80;99.90
15636;DHT22;7917;50.818;6.972;2024-02-21T00:15:25;8.90;99.90
15636;DHT22;7917;50.818;6.972;2024-02-21T00:17:52;8.80;99.90
15636;DHT22;7917;50.818;6.972;2024-02-21T00:20:18;8.90;99.90
15636;DHT22;7917;50.818;6.972;2024-02-21T00:22:48;8.80;99.90
15636;DHT22;7917;50.818;6.972;2024-02-21T00:25:17;8.90;99.90
15636;DHT22;7917;50.818;6.972;2024-02-21T00:27:44;8.80;99.90
15636;DHT22;7917;50.818;6.972;2024-02-21T00:30:12;8.80;99.90
15636;DHT22;7917;50.818;6.972;2024-02-21T00:32:40;8.80;99.90
15636;DHT22;7917;50.818;6.972;2024-02-21T00:35:08;8.80;99.90
15636;DHT22;7917;50.818;6.972;2024-02-21T00:37:45;8.80;99.90
15636;DHT22;7917;50.818;6.972;2024-02-21T00:40:12;8.80;99.90
15636;DHT22;7917;50.818;6.972;2024-02-21T00:42:41;8.80;99.90
15636;DHT22;7917;50.818;6.972;2024-02-21T00:45:09;8.80;99.90
15636;DHT22;7917;50.818;6.972;2024-02-21T00:47:35;8.90;99.90
15636;DHT22;7917;50.818;6.972;2024-02-21T00:50:02;8.90;99.90
15636;DHT22;7917;50.818;6.972;2024-02-21T00:52:29;8.80;99.90
15636;DHT22;7917;50.818;6.972;2024-02-21T00:54:56;8.50;99.90
15636;DHT22;7917;50.818;6.972;2024-02-21T00:57:23;8.80;99.90
15636;DHT22;7917;50.818;6.972;2024-02-21T00:59:49;9.10;99.90
15636;DHT22;7917;50.818;6.972;2024-02-21T01:02:16;8.80;99.90
15636;DHT22;7917;50.818;6.972;2024-02-21T01:04:42;8.80;99.90
15636;DHT22;7917;50.818;6.972;2024-02-21T01:07:09;8.80;99.90
15636;DHT22;7917;50.818;6.972;2024-02-21T01:09:36;8.70;99.90
15636;DHT22;7917;50.818;6.972;2024-02-21T01:12:03;8.70;99.90
15636;DHT22;7917;50.818;6.972;2024-02-21T01:14:30;8.60;99.90
15636;DHT22;7917;50.818;6.972;2024-02-21T01:16:56;8.60;99.90
15636;DHT22;7917;50.818;6.972;2024-02-21T01:19:22;8.50;99.90
15636;DHT22;7917;50.818;6.972;2024-02-21T01:21:49;8.50;99.90
15636;DHT22;7917;50.818;6.972;2024-02-21T01:24:15;8.50;99.90
15636;DHT22;7917;50.818;6.972;2024-02-21T01:26:42;8.60;99.90
15636;DHT22;7917;50.818;6.972;2024-02-21T01:29:09;8.60;99.90
15636;DHT22;7917;50.818;6.972;2024-02-21T01:31:35;8.60;99.90
15636;DHT22;7917;50.818;6.972;2024-02-21T01:34:02;8.60;99.90
15636;DHT22;7917;50.818;6.972;2024-02-21T01:36:28;8.70;99.90
15636;DHT22;7917;50.818;6.972;2024-02-21T01:38:55;8.60;99.90
15636;DHT22;7917;50.818;6.972;2024-02-21T01:41:21;8.70;99.90
15636;DHT22;7917;50.818;6.972;2024-02-21T01:43:48;8.60;99.90
15636;DHT22;7917;50.818;6.972;2024-02-21T01:46:15;8.60;99.90
15636;DHT22;7917;50.818;6.972;2024-02-21T01:48:41;8.60;99.90
15636;DHT22;7917;50.818;6.972;2024-02-21T01:51:08;8.70;99.90
15636;DHT22;7917;50.818;6.972;2024-02-21T01:53:37;8.60;99.90
15636;DHT22;7917;50.818;6.972;2024-02-21T01:56:05;8.70;99.90
15636;DHT22;7917;50.818;6.972;2024-02-21T01:58:33;8.60;99.90
15636;DHT22;7917;50.818;6.972;2024-02-21T02:01:03;8.70;99.90
15636;DHT22;7917;50.818;6.972;2024-02-21T02:03:30;8.60;99.90
15636;DHT22;7917;50.818;6.972;2024-02-21T02:05:57;8.50;99.90
15636;DHT22;7917;50.818;6.972;2024-02-21T02:08:24;8.60;99.90
15636;DHT22;7917;50.818;6.972;2024-02-21T02:10:51;8.60;99.90
15636;DHT22;7917;50.818;6.972;2024-02-21T02:13:19;8.60;99.90
15636;DHT22;7917;50.818;6.972;2024-02-21T02:15:48;8.60;99.90
15636;DHT22;7917;50.818;6.972;2024-02-21T02:18:16;8.60;99.90
15636;DHT22;7917;50.818;6.972;2024-02-21T02:20:43;8.60;99.90
15636;DHT22;7917;50.818;6.972;2024-02-21T02:23:11;8.60;99.90
15636;DHT22;7917;50.818;6.972;2024-02-21T02:25:39;8.60;99.90
15636;DHT22;7917;50.818;6.972;2024-02-21T02:28:06;8.50;99.90
15636;DHT22;7917;50.818;6.972;2024-02-21T02:30:33;8.50;99.90
15636;DHT22;7917;50.818;6.972;2024-02-21T02:33:00;8.40;99.90
15636;DHT22;7917;50.818;6.972;2024-02-21T02:35:28;8.30;99.90
15636;DHT22;7917;50.818;6.972;2024-02-21T02:37:55;8.30;99.90
15636;DHT22;7917;50.818;6.972;2024-02-21T02:40:21;8.20;99.90
15636;DHT22;7917;50.818;6.972;2024-02-21T02:42:49;8.20;99.90
15636;DHT22;7917;50.818;6.972;2024-02-21T02:45:16;8.20;99.90
15636;DHT22;7917;50.818;6.972;2024-02-21T02:47:44;8.30;99.90
15636;DHT22;7917;50.818;6.972;2024-02-21T02:50:12;8.20;99.90
15636;DHT22;7917;50.818;6.972;2024-02-21T02:52:38;8.10;99.90
15636;DHT22;7917;50.818;6.972;2024-02-21T02:55:06;8.10;99.90
15636;DHT22;7917;50.818;6.972;2024-02-21T02:57:33;8.10;99.90
15636;DHT22;7917;50.818;6.972;2024-02-21T03:00:00;7.80;99.90
15636;DHT22;7917;50.818;6.972;2024-02-21T03:02:26;8.20;99.90
15636;DHT22;7917;50.818;6.972;2024-02-21T03:04:53;8.20;99.90
15636;DHT22;7917;50.818;6.972;2024-02-21T03:07:20;8.20;99.90
15636;DHT22;7917;50.818;6.972;2024-02-21T03:09:46;8.30;99.90
15636;DHT22;7917;50.818;6.972;2024-02-21T03:12:14;8.30;99.90
15636;DHT22;7917;50.818;6.972;2024-02-21T03:14:45;8.30;99.90
15636;DHT22;7917;50.818;6.972;2024-02-21T03:17:11;8.30;99.90
15636;DHT22;7917;50.818;6.972;2024-02-21T03:19:38;8.20;99.90
15636;DHT22;7917;50.818;6.972;2024-02-21T03:22:04;8.20;99.90
15636;DHT22;7917;50.818;6.972;2024-02-21T03:24:31;8.10;99.90
15636;DHT22;7917;50.818;6.972;2024-02-21T03:26:59;8.10;99.90
15636;DHT22;7917;50.818;6.972;2024-02-21T03:29:25;8.00;99.90
15636;DHT22;7917;50.818;6.972;2024-02-21T03:31:52;7.90;99.90
15636;DHT22;7917;50.818;6.972;2024-02-21T03:34:19;7.90;99.90
15636;DHT22;7917;50.818;6.972;2024-02-21T03:36:45;7.90;99.90
15636;DHT22;7917;50.818;6.972;2024-02-21T03:39:12;7.90;99.90
15636;DHT22;7917;50.818;6.972;2024-02-21T03:41:40;7.80;99.90
15636;DHT22;7917;50.818;6.972;2024-02-21T03:44:07;7.80;99.90
15636;DHT22;7917;50.818;6.972;2024-02-21T03:46:33;7.80;99.90
15636;DHT22;7917;50.818;6.972;2024-02-21T03:49:00;7.80;99.90
15636;DHT22;7917;50.818;6.972;2024-02-21T03:51:27;7.80;99.90
15636;DHT22;7917;50.818;6.972;2024-02-21T03:53:53;7.90;99.90
15636;DHT22;7917;50.818;6.972;2024-02-21T03:56:20;7.90;99.90
15636;DHT22;7917;50.818;6.972;2024-02-21T03:58:47;8.00;99.90
15636;DHT22;7917;50.818;6.972;2024-02-21T04:04:36;8.00;99.90
15636;DHT22;7917;50.818;6.972;2024-02-21T04:07:04;8.10;99.90
15636;DHT22;7917;50.818;6.972;2024-02-21T04:09:32;8.10;99.90
15636;DHT22;7917;50.818;6.972;2024-02-21T04:12:01;8.10;99.90
15636;DHT22;7917;50.818;6.972;2024-02-21T04:14:27;8.00;99.90
15636;DHT22;7917;50.818;6.972;2024-02-21T04:16:54;7.70;99.90
15636;DHT22;7917;50.818;6.972;2024-02-21T04:19:21;8.10;99.90
15636;DHT22;7917;50.818;6.972;2024-02-21T04:21:48;8.00;99.90
15636;DHT22;7917;50.818;6.972;2024-02-21T04:24:15;8.00;99.90
15636;DHT22;7917;50.818;6.972;2024-02-21T04:26:44;8.00;99.90
15636;DHT22;7917;50.818;6.972;2024-02-21T04:29:11;7.90;99.90
15636;DHT22;7917;50.818;6.972;2024-02-21T04:31:38;7.90;99.90
15636;DHT22;7917;50.818;6.972;2024-02-21T04:34:06;7.90;99.90
15636;DHT22;7917;50.818;6.972;2024-02-21T04:36:33;7.90;99.90
15636;DHT22;7917;50.818;6.972;2024-02-21T04:39:00;7.90;99.90
15636;DHT22;7917;50.818;6.972;2024-02-21T04:41:29;7.90;99.90
15636;DHT22;7917;50.818;6.972;2024-02-21T04:43:56;7.80;99.90
15636;DHT22;7917;50.818;6.972;2024-02-21T04:46:22;7.80;99.90
15636;DHT22;7917;50.818;6.972;2024-02-21T04:48:49;7.80;99.90
15636;DHT22;7917;50.818;6.972;2024-02-21T04:51:16;7.80;99.90
15636;DHT22;7917;50.818;6.972;2024-02-21T04:53:43;7.80;99.90
15636;DHT22;7917;50.818;6.972;2024-02-21T04:56:15;7.80;99.90
15636;DHT22;7917;50.818;6.972;2024-02-21T04:58:43;7.80;99.90
15636;DHT22;7917;50.818;6.972;2024-02-21T05:01:09;7.90;99.90
15636;DHT22;7917;50.818;6.972;2024-02-21T05:03:38;7.90;99.90
15636;DHT22;7917;50.818;6.972;2024-02-21T05:06:05;8.00;99.90
15636;DHT22;7917;50.818;6.972;2024-02-21T05:08:33;8.00;99.90
15636;DHT22;7917;50.818;6.972;2024-02-21T05:11:00;8.10;99.90
15636;DHT22;7917;50.818;6.972;2024-02-21T05:13:27;8.10;99.90
15636;DHT22;7917;50.818;6.972;2024-02-21T05:15:55;8.10;99.90
15636;DHT22;7917;50.818;6.972;2024-02-21T05:18:21;8.10;99.90
15636;DHT22;7917;50.818;6.972;2024-02-21T05:20:48;8.10;99.90
15636;DHT22;7917;50.818;6.972;2024-02-21T05:23:15;8.10;99.90
15636;DHT22;7917;50.818;6.972;2024-02-21T05:25:42;8.10;99.90
15636;DHT22;7917;50.818;6.972;2024-02-21T05:28:08;8.10;99.90
15636;DHT22;7917;50.818;6.972;2024-02-21T05:30:36;8.10;99.90
15636;DHT22;7917;50.818;6.972;2024-02-21T05:33:07;8.20;99.90
15636;DHT22;7917;50.818;6.972;2024-02-21T05:35:34;8.10;99.90
15636;DHT22;7917;50.818;6.972;2024-02-21T05:38:01;8.10;99.90
15636;DHT22;7917;50.818;6.972;2024-02-21T05:40:33;8.10;99.90
15636;DHT22;7917;50.818;6.972;2024-02-21T05:43:00;8.10;99.90
15636;DHT22;7917;50.818;6.972;2024-02-21T05:45:26;8.10;99.90
15636;DHT22;7917;50.818;6.972;2024-02-21T05:47:55;8.20;99.90
15636;DHT22;7917;50.818;6.972;2024-02-21T05:50:24;8.20;99.90
15636;DHT22;7917;50.818;6.972;2024-02-21T05:52:54;8.20;99.90
15636;DHT22;7917;50.818;6.972;2024-02-21T05:55:21;8.20;99.90
15636;DHT22;7917;50.818;6.972;2024-02-21T05:57:48;8.20;99.90
15636;DHT22;7917;50.818;6.972;2024-02-21T06:00:15;8.20;99.90
15636;DHT22;7917;50.818;6.972;2024-02-21T06:02:42;8.20;99.90
15636;DHT22;7917;50.818;6.972;2024-02-21T06:05:09;8.20;99.90
15636;DHT22;7917;50.818;6.972;2024-02-21T06:07:37;8.20;99.90
15636;DHT22;7917;50.818;6.972;2024-02-21T06:10:06;8.20;99.90
15636;DHT22;7917;50.818;6.972;2024-02-21T06:12:33;8.20;99.90
15636;DHT22;7917;50.818;6.972;2024-02-21T06:15:00;8.10;99.90
15636;DHT22;7917;50.818;6.972;2024-02-21T06:17:28;8.10;99.90
15636;DHT22;7917;50.818;6.972;2024-02-21T06:19:55;8.10;99.90
15636;DHT22;7917;50.818;6.972;2024-02-21T06:22:22;8.10;99.90
15636;DHT22;7917;50.818;6.972;2024-02-21T06:24:49;8.00;99.90
15636;DHT22;7917;50.818;6.972;2024-02-21T06:27:16;8.00;99.90
15636;DHT22;7917;50.818;6.972;2024-02-21T06:29:43;8.10;99.90
15636;DHT22;7917;50.818;6.972;2024-02-21T06:32:10;8.10;99.90
15636;DHT22;7917;50.818;6.972;2024-02-21T06:34:37;8.10;99.90
15636;DHT22;7917;50.818;6.972;2024-02-21T06:37:03;8.10;99.90
15636;DHT22;7917;50.818;6.972;2024-02-21T06:39:31;8.10;99.90
15636;DHT22;7917;50.818;6.972;2024-02-21T06:41:58;8.10;99.90
15636;DHT22;7917;50.818;6.972;2024-02-21T06:44:26;8.10;99.90
15636;DHT22;7917;50.818;6.972;2024-02-21T06:46:54;8.10;99.90
15636;DHT22;7917;50.818;6.972;2024-02-21T06:49:21;8.10;99.90
15636;DHT22;7917;50.818;6.972;2024-02-21T06:51:47;8.20;99.90
15636;DHT22;7917;50.818;6.972;2024-02-21T06:54:14;8.30;99.90
15636;DHT22;7917;50.818;6.972;2024-02-21T06:56:41;8.20;99.90
15636;DHT22;7917;50.818;6.972;2024-02-21T06:59:09;8.20;99.90
15636;DHT22;7917;50.818;6.972;2024-02-21T07:01:36;8.30;99.90
15636;DHT22;7917;50.818;6.972;2024-02-21T07:04:03;8.30;99.90
15636;DHT22;7917;50.818;6.972;2024-02-21T07:06:30;8.20;99.90
15636;DHT22;7917;50.818;6.972;2024-02-21T07:09:02;8.20;99.90
15636;DHT22;7917;50.818;6.972;2024-02-21T07:11:29;8.20;99.90
15636;DHT22;7917;50.818;6.972;2024-02-21T07:13:56;8.20;99.90
15636;DHT22;7917;50.818;6.972;2024-02-21T07:16:25;8.30;99.90
15636;DHT22;7917;50.818;6.972;2024-02-21T07:18:52;8.30;99.90
15636;DHT22;7917;50.818;6.972;2024-02-21T07:21:19;8.30;99.90
15636;DHT22;7917;50.818;6.972;2024-02-21T07:23:46;8.30;99.90
15636;DHT22;7917;50.818;6.972;2024-02-21T07:26:13;8.30;99.90
15636;DHT22;7917;50.818;6.972;2024-02-21T07:28:39;8.30;99.90
15636;DHT22;7917;50.818;6.972;2024-02-21T07:31:06;8.40;99.90
15636;DHT22;7917;50.818;6.972;2024-02-21T07:33:34;8.40;99.90
15636;DHT22;7917;50.818;6.972;2024-02-21T07:36:01;8.40;99.90
15636;DHT22;7917;50.818;6.972;2024-02-21T07:38:32;8.40;99.90
15636;DHT22;7917;50.818;6.972;2024-02-21T07:40:59;8.40;99.90
15636;DHT22;7917;50.818;6.972;2024-02-21T07:43:26;8.40;99.90
15636;DHT22;7917;50.818;6.972;2024-02-21T07:45:54;8.40;99.90
15636;DHT22;7917;50.818;6.972;2024-02-21T07:48:21;8.50;99.90
15636;DHT22;7917;50.818;6.972;2024-02-21T07:50:51;8.50;99.90
15636;DHT22;7917;50.818;6.972;2024-02-21T07:53:19;8.50;99.90
15636;DHT22;7917;50.818;6.972;2024-02-21T07:55:46;8.50;99.90
15636;DHT22;7917;50.818;6.972;2024-02-21T07:58:13;8.60;99.90
15636;DHT22;7917;50.818;6.972;2024-02-21T08:00:40;8.60;99.90
15636;DHT22;7917;50.818;6.972;2024-02-21T08:03:07;8.60;99.90
15636;DHT22;7917;50.818;6.972;2024-02-21T08:05:35;8.70;99.90
15636;DHT22;7917;50.818;6.972;2024-02-21T08:08:03;8.70;99.90
15636;DHT22;7917;50.818;6.972;2024-02-21T08:10:30;8.70;99.90
15636;DHT22;7917;50.818;6.972;2024-02-21T08:12:57;8.70;99.90
15636;DHT22;7917;50.818;6.972;2024-02-21T08:15:24;8.80;99.90
15636;DHT22;7917;50.818;6.972;2024-02-21T08:17:54;8.80;99.90
15636;DHT22;7917;50.818;6.972;2024-02-21T08:20:24;8.90;99.90
15636;DHT22;7917;50.818;6.972;2024-02-21T08:22:51;9.00;99.90
15636;DHT22;7917;50.818;6.972;2024-02-21T08:25:19;9.00;99.90
15636;DHT22;7917;50.818;6.972;2024-02-21T08:27:46;9.00;99.90
15636;DHT22;7917;50.818;6.972;2024-02-21T08:30:13;9.00;99.90
15636;DHT22;7917;50.818;6.972;2024-02-21T08:32:40;9.10;99.90
15636;DHT22;7917;50.818;6.972;2024-02-21T08:35:08;9.10;99.90
15636;DHT22;7917;50.818;6.972;2024-02-21T08:37:35;9.20;99.90
15636;DHT22;7917;50.818;6.972;2024-02-21T08:40:02;9.30;99.90
15636;DHT22;7917;50.818;6.972;2024-02-21T08:42:35;9.30;99.90
15636;DHT22;7917;50.818;6.972;2024-02-21T08:45:02;9.30;99.90
15636;DHT22;7917;50.818;6.972;2024-02-21T08:47:29;9.30;99.90
15636;DHT22;7917;50.818;6.972;2024-02-21T08:49:56;9.30;99.90
15636;DHT22;7917;50.818;6.972;2024-02-21T08:52:23;9.40;99.90
15636;DHT22;7917;50.818;6.972;2024-02-21T08:54:49;9.40;99.90
15636;DHT22;7917;50.818;6.972;2024-02-21T08:57:19;9.50;99.90
15636;DHT22;7917;50.818;6.972;2024-02-21T08:59:47;9.50;99.90
15636;DHT22;7917;50.818;6.972;2024-02-21T09:02:14;9.70;99.90
15636;DHT22;7917;50.818;6.972;2024-02-21T09:04:42;9.70;99.90
15636;DHT22;7917;50.818;6.972;2024-02-21T09:07:09;9.90;99.90
15636;DHT22;7917;50.818;6.972;2024-02-21T09:09:36;10.00;99.90
15636;DHT22;7917;50.818;6.972;2024-02-21T09:12:06;10.10;99.90
15636;DHT22;7917;50.818;6.972;2024-02-21T09:14:33;10.30;99.90
15636;DHT22;7917;50.818;6.972;2024-02-21T09:17:01;10.20;99.90
15636;DHT22;7917;50.818;6.972;2024-02-21T09:19:28;10.20;99.90
15636;DHT22;7917;50.818;6.972;2024-02-21T09:21:55;10.20;99.90
15636;DHT22;7917;50.818;6.972;2024-02-21T09:24:22;10.10;99.90
15636;DHT22;7917;50.818;6.972;2024-02-21T09:26:49;10.00;99.90
15636;DHT22;7917;50.818;6.972;2024-02-21T09:29:16;10.00;99.90
15636;DHT22;7917;50.818;6.972;2024-02-21T09:31:43;10.10;99.90
15636;DHT22;7917;50.818;6.972;2024-02-21T09:34:10;10.20;99.90
15636;DHT22;7917;50.818;6.972;2024-02-21T09:36:38;10.30;99.90
15636;DHT22;7917;50.818;6.972;2024-02-21T09:39:06;10.50;99.90
15636;DHT22;7917;50.818;6.972;2024-02-21T09:41:37;10.50;99.90
15636;DHT22;7917;50.818;6.972;2024-02-21T09:44:10;10.50;99.90
15636;DHT22;7917;50.818;6.972;2024-02-21T09:46:45;10.30;99.90
15636;DHT22;7917;50.818;6.972;2024-02-21T09:49:23;10.10;99.90
15636;DHT22;7917;50.818;6.972;2024-02-21T09:51:54;10.10;99.90
15636;DHT22;7917;50.818;6.972;2024-02-21T09:54:22;10.20;99.90
15636;DHT22;7917;50.818;6.972;2024-02-21T09:56:49;10.20;99.90
15636;DHT22;7917;50.818;6.972;2024-02-21T09:59:16;10.20;99.90
15636;DHT22;7917;50.818;6.972;2024-02-21T10:01:44;10.30;99.90
15636;DHT22;7917;50.818;6.972;2024-02-21T10:04:13;10.50;99.90
15636;DHT22;7917;50.818;6.972;2024-02-21T10:06:41;10.50;99.90
15636;DHT22;7917;50.818;6.972;2024-02-21T10:09:08;10.70;99.90
15636;DHT22;7917;50.818;6.972;2024-02-21T10:11:35;10.80;99.90
15636;DHT22;7917;50.818;6.972;2024-02-21T10:14:06;10.80;99.90
15636;DHT22;7917;50.818;6.972;2024-02-21T10:16:33;10.80;99.90
15636;DHT22;7917;50.818;6.972;2024-02-21T10:19:00;10.90;99.90
15636;DHT22;7917;50.818;6.972;2024-02-21T10:21:27;11.00;99.90
15636;DHT22;7917;50.818;6.972;2024-02-21T10:23:56;11.10;99.90
15636;DHT22;7917;50.818;6.972;2024-02-21T10:26:23;11.20;99.90
15636;DHT22;7917;50.818;6.972;2024-02-21T10:28:50;11.30;99.90
15636;DHT22;7917;50.818;6.972;2024-02-21T10:31:25;11.30;99.90
15636;DHT22;7917;50.818;6.972;2024-02-21T10:33:56;11.20;99.90
15636;DHT22;7917;50.818;6.972;2024-02-21T10:36:23;11.10;99.90
15636;DHT22;7917;50.818;6.972;2024-02-21T10:38:51;11.30;99.90
15636;DHT22;7917;50.818;6.972;2024-02-21T10:41:21;11.40;99.90
15636;DHT22;7917;50.818;6.972;2024-02-21T10:43:56;11.80;99.90
15636;DHT22;7917;50.818;6.972;2024-02-21T10:46:26;11.60;99.90
15636;DHT22;7917;50.818;6.972;2024-02-21T10:49:10;11.70;99.90
15636;DHT22;7917;50.818;6.972;2024-02-21T10:51:43;11.60;99.90
15636;DHT22;7917;50.818;6.972;2024-02-21T10:54:21;11.60;99.90
15636;DHT22;7917;50.818;6.972;2024-02-21T10:56:53;11.60;99.90
15636;DHT22;7917;50.818;6.972;2024-02-21T10:59:25;11.60;99.90
15636;DHT22;7917;50.818;6.972;2024-02-21T11:01:52;11.70;99.90
15636;DHT22;7917;50.818;6.972;2024-02-21T11:04:20;11.80;99.90
15636;DHT22;7917;50.818;6.972;2024-02-21T11:06:48;11.70;99.90
15636;DHT22;7917;50.818;6.972;2024-02-21T11:09:29;12.00;99.90
15636;DHT22;7917;50.818;6.972;2024-02-21T11:11:58;12.00;99.90
15636;DHT22;7917;50.818;6.972;2024-02-21T11:14:27;12.10;99.90
15636;DHT22;7917;50.818;6.972;2024-02-21T11:16:54;12.10;99.90
15636;DHT22;7917;50.818;6.972;2024-02-21T11:19:24;11.90;99.90
15636;DHT22;7917;50.818;6.972;2024-02-21T11:21:52;11.90;99.90
15636;DHT22;7917;50.818;6.972;2024-02-21T11:24:27;12.10;99.90
15636;DHT22;7917;50.818;6.972;2024-02-21T11:26:55;12.10;99.90
15636;DHT22;7917;50.818;6.972;2024-02-21T11:29:26;12.30;99.90
15636;DHT22;7917;50.818;6.972;2024-02-21T11:31:55;12.30;99.90
15636;DHT22;7917;50.818;6.972;2024-02-21T11:34:25;12.20;99.90
15636;DHT22;7917;50.818;6.972;2024-02-21T11:36:52;12.30;99.90
15636;DHT22;7917;50.818;6.972;2024-02-21T11:39:20;12.30;99.90
15636;DHT22;7917;50.818;6.972;2024-02-21T11:41:59;12.40;99.90
15636;DHT22;7917;50.818;6.972;2024-02-21T11:44:29;12.30;99.90
15636;DHT22;7917;50.818;6.972;2024-02-21T11:46:56;12.20;99.90
15636;DHT22;7917;50.818;6.972;2024-02-21T11:49:25;12.20;99.90
15636;DHT22;7917;50.818;6.972;2024-02-21T11:51:58;12.20;99.90
15636;DHT22;7917;50.818;6.972;2024-02-21T11:54:26;12.20;99.90
15636;DHT22;7917;50.818;6.972;2024-02-21T11:56:52;12.10;99.90
15636;DHT22;7917;50.818;6.972;2024-02-21T11:59:19;12.10;99.90
15636;DHT22;7917;50.818;6.972;2024-02-21T12:01:48;12.00;99.90
15636;DHT22;7917;50.818;6.972;2024-02-21T12:04:15;11.90;99.90
15636;DHT22;7917;50.818;6.972;2024-02-21T12:06:44;11.80;99.90
15636;DHT22;7917;50.818;6.972;2024-02-21T12:09:14;11.90;99.90
15636;DHT22;7917;50.818;6.972;2024-02-21T12:11:42;12.00;99.90
15636;DHT22;7917;50.818;6.972;2024-02-21T12:14:10;12.00;99.90
15636;DHT22;7917;50.818;6.972;2024-02-21T12:16:37;12.10;99.90
15636;DHT22;7917;50.818;6.972;2024-02-21T12:19:05;12.10;99.90
15636;DHT22;7917;50.818;6.972;2024-02-21T12:21:33;12.10;99.90
15636;DHT22;7917;50.818;6.972;2024-02-21T12:24:12;12.10;99.90
15636;DHT22;7917;50.818;6.972;2024-02-21T12:26:39;11.90;99.90
15636;DHT22;7917;50.818;6.972;2024-02-21T12:29:06;11.80;99.90
15636;DHT22;7917;50.818;6.972;2024-02-21T12:31:35;11.80;99.90
15636;DHT22;7917;50.818;6.972;2024-02-21T12:34:02;11.70;99.90
15636;DHT22;7917;50.818;6.972;2024-02-21T12:36:30;11.80;99.90
15636;DHT22;7917;50.818;6.972;2024-02-21T12:38:58;11.70;99.90
15636;DHT22;7917;50.818;6.972;2024-02-21T12:41:25;11.80;99.90
15636;DHT22;7917;50.818;6.972;2024-02-21T12:43:53;11.90;99.90
15636;DHT22;7917;50.818;6.972;2024-02-21T12:46:20;12.00;99.90
15636;DHT22;7917;50.818;6.972;2024-02-21T12:48:47;12.00;99.90
15636;DHT22;7917;50.818;6.972;2024-02-21T12:51:15;12.10;99.90
15636;DHT22;7917;50.818;6.972;2024-02-21T12:53:42;12.10;99.90
15636;DHT22;7917;50.818;6.972;2024-02-21T12:56:09;12.30;99.90
15636;DHT22;7917;50.818;6.972;2024-02-21T12:58:36;12.30;99.90
15636;DHT22;7917;50.818;6.972;2024-02-21T13:01:04;12.30;99.90
15636;DHT22;7917;50.818;6.972;2024-02-21T13:03:31;12.40;99.90
15636;DHT22;7917;50.818;6.972;2024-02-21T13:05:59;12.50;99.90
15636;DHT22;7917;50.818;6.972;2024-02-21T13:08:26;12.50;99.90
15636;DHT22;7917;50.818;6.972;2024-02-21T13:10:54;12.50;99.90
15636;DHT22;7917;50.818;6.972;2024-02-21T13:13:21;12.40;99.90
15636;DHT22;7917;50.818;6.972;2024-02-21T13:15:52;12.30;99.90
15636;DHT22;7917;50.818;6.972;2024-02-21T13:18:19;12.30;99.90
15636;DHT22;7917;50.818;6.972;2024-02-21T13:20:47;12.30;99.90
15636;DHT22;7917;50.818;6.972;2024-02-21T13:23:14;12.20;99.90
15636;DHT22;7917;50.818;6.972;2024-02-21T13:25:41;12.20;99.90
15636;DHT22;7917;50.818;6.972;2024-02-21T13:28:11;12.20;99.90
15636;DHT22;7917;50.818;6.972;2024-02-21T13:30:38;12.20;99.90
15636;DHT22;7917;50.818;6.972;2024-02-21T13:33:07;12.20;99.90
15636;DHT22;7917;50.818;6.972;2024-02-21T13:35:36;12.30;99.90
15636;DHT22;7917;50.818;6.972;2024-02-21T13:38:04;12.10;99.90
15636;DHT22;7917;50.818;6.972;2024-02-21T13:40:31;12.10;99.90
15636;DHT22;7917;50.818;6.972;2024-02-21T13:42:59;12.00;99.90
15636;DHT22;7917;50.818;6.972;2024-02-21T13:45:28;12.00;99.90
15636;DHT22;7917;50.818;6.972;2024-02-21T13:47:57;12.10;99.90
15636;DHT22;7917;50.818;6.972;2024-02-21T13:50:30;11.80;99.90
15636;DHT22;7917;50.818;6.972;2024-02-21T13:52:58;11.80;99.90
15636;DHT22;7917;50.818;6.972;2024-02-21T13:55:25;11.80;99.90
15636;DHT22;7917;50.818;6.972;2024-02-21T13:57:52;11.80;99.90
15636;DHT22;7917;50.818;6.972;2024-02-21T14:00:20;11.80;99.90
15636;DHT22;7917;50.818;6.972;2024-02-21T14:02:48;11.80;99.90
15636;DHT22;7917;50.818;6.972;2024-02-21T14:05:15;11.90;99.90
15636;DHT22;7917;50.818;6.972;2024-02-21T14:07:42;11.90;99.90
15636;DHT22;7917;50.818;6.972;2024-02-21T14:10:12;12.00;99.90
15636;DHT22;7917;50.818;6.972;2024-02-21T14:12:39;12.00;99.90
15636;DHT22;7917;50.818;6.972;2024-02-21T14:15:06;12.10;99.90
15636;DHT22;7917;50.818;6.972;2024-02-21T14:17:35;12.10;99.90
15636;DHT22;7917;50.818;6.972;2024-02-21T14:20:03;12.20;99.90
15636;DHT22;7917;50.818;6.972;2024-02-21T14:22:30;12.10;99.90
15636;DHT22;7917;50.818;6.972;2024-02-21T14:24:57;12.10;99.90
15636;DHT22;7917;50.818;6.972;2024-02-21T14:27:25;12.00;99.90
15636;DHT22;7917;50.818;6.972;2024-02-21T14:29:52;12.10;99.90
15636;DHT22;7917;50.818;6.972;2024-02-21T14:32:21;12.20;99.90
15636;DHT22;7917;50.818;6.972;2024-02-21T14:34:48;12.20;99.90
15636;DHT22;7917;50.818;6.972;2024-02-21T14:37:16;12.20;99.90
15636;DHT22;7917;50.818;6.972;2024-02-21T14:39:43;12.20;99.90
15636;DHT22;7917;50.818;6.972;2024-02-21T14:42:10;12.10;99.90
15636;DHT22;7917;50.818;6.972;2024-02-21T14:44:38;12.10;99.90
15636;DHT22;7917;50.818;6.972;2024-02-21T14:47:05;12.10;99.90
15636;DHT22;7917;50.818;6.972;2024-02-21T14:49:33;12.10;99.90
15636;DHT22;7917;50.818;6.972;2024-02-21T14:52:00;12.10;99.90
15636;DHT22;7917;50.818;6.972;2024-02-21T14:54:28;12.10;99.90
15636;DHT22;7917;50.818;6.972;2024-02-21T14:56:55;12.10;99.90
15636;DHT22;7917;50.818;6.972;2024-02-21T14:59:22;12.00;99.90
15636;DHT22;7917;50.818;6.972;2024-02-21T15:01:49;11.90;99.90
15636;DHT22;7917;50.818;6.972;2024-02-21T15:04:16;11.90;99.90
15636;DHT22;7917;50.818;6.972;2024-02-21T15:06:43;11.80;99.90
15636;DHT22;7917;50.818;6.972;2024-02-21T15:09:11;11.80;99.90
15636;DHT22;7917;50.818;6.972;2024-02-21T15:11:39;11.80;99.90
15636;DHT22;7917;50.818;6.972;2024-02-21T15:14:06;11.80;99.90
15636;DHT22;7917;50.818;6.972;2024-02-21T15:16:33;11.60;99.90
15636;DHT22;7917;50.818;6.972;2024-02-21T15:19:00;11.60;99.90
15636;DHT22;7917;50.818;6.972;2024-02-21T15:21:27;11.60;99.90
15636;DHT22;7917;50.818;6.972;2024-02-21T15:23:54;11.60;99.90
15636;DHT22;7917;50.818;6.972;2024-02-21T15:26:22;11.60;99.90
15636;DHT22;7917;50.818;6.972;2024-02-21T15:28:51;11.40;99.90
15636;DHT22;7917;50.818;6.972;2024-02-21T15:31:21;11.50;99.90
15636;DHT22;7917;50.818;6.972;2024-02-21T15:33:49;11.50;99.90
15636;DHT22;7917;50.818;6.972;2024-02-21T15:36:16;11.50;99.90
15636;DHT22;7917;50.818;6.972;2024-02-21T15:38:44;11.40;99.90
15636;DHT22;7917;50.818;6.972;2024-02-21T15:41:12;11.30;99.90
15636;DHT22;7917;50.818;6.972;2024-02-21T15:43:40;11.30;99.90
15636;DHT22;7917;50.818;6.972;2024-02-21T15:46:10;11.20;99.90
15636;DHT22;7917;50.818;6.972;2024-02-21T15:48:37;11.20;99.90
15636;DHT22;7917;50.818;6.972;2024-02-21T15:51:06;11.20;99.90
15636;DHT22;7917;50.818;6.972;2024-02-21T15:53:51;11.10;99.90
15636;DHT22;7917;50.818;6.972;2024-02-21T15:56:20;11.10;99.90
15636;DHT22;7917;50.818;6.972;2024-02-21T15:58:47;11.00;99.90
15636;DHT22;7917;50.818;6.972;2024-02-21T16:01:16;10.90;99.90